sensor_id;sensor_type;location;lat;lon;timestamp;pressure;altitude;pressure_sealevel;temperature;humidity
27202;BME280;14717;46.924;15.474;2022-12-18T00:01:46;99211.78;;;-0.19;100.00
27202;BME280;14717;46.924;15.474;2022-12-18T00:04:23;99205.47;;;-0.40;100.00
27202;BME280;14717;46.924;15.474;2022-12-18T00:06:49;99215.69;;;-0.42;100.00
27202;BME280;14717;46.924;15.474;2022-12-18T00:09:14;99222.81;;;-0.41;100.00
27202;BME280;14717;46.924;15.474;2022-12-18T00:11:40;99217.38;;;-0.20;100.00
27202;BME280;14717;46.924;15.474;2022-12-18T00:14:05;99219.00;;;-0.05;100.00
27202;BME280;14717;46.924;15.474;2022-12-18T00:16:31;99214.13;;;0.05;100.00
27202;BME280;14717;46.924;15.474;2022-12-18T00:18:59;99216.81;;;-0.16;100.00
27202;BME280;14717;46.924;15.474;2022-12-18T00:21:26;99221.19;;;-0.15;100.00
27202;BME280;14717;46.924;15.474;2022-12-18T00:23:52;99230.53;;;-0.03;100.00
27202;BME280;14717;46.924;15.474;2022-12-18T00:26:22;99231.56;;;-0.04;100.00
27202;BME280;14717;46.924;15.474;2022-12-18T00:28:48;99232.53;;;0.09;100.00
27202;BME280;14717;46.924;15.474;2022-12-18T00:31:19;99238.41;;;0.13;100.00
27202;BME280;14717;46.924;15.474;2022-12-18T00:33:45;99234.94;;;0.19;100.00
27202;BME280;14717;46.924;15.474;2022-12-18T00:36:19;99242.63;;;0.15;100.00
27202;BME280;14717;46.924;15.474;2022-12-18T00:38:46;99246.41;;;-0.21;100.00
27202;BME280;14717;46.924;15.474;2022-12-18T00:41:14;99249.69;;;-0.25;100.00
27202;BME280;14717;46.924;15.474;2022-12-18T00:43:59;99258.34;;;-0.01;100.00
27202;BME280;14717;46.924;15.474;2022-12-18T00:46:25;99266.84;;;-0.04;100.00
27202;BME280;14717;46.924;15.474;2022-12-18T00:48:50;99263.34;;;-0.19;100.00
27202;BME280;14717;46.924;15.474;2022-12-18T00:51:16;99257.13;;;-0.34;100.00
27202;BME280;14717;46.924;15.474;2022-12-18T00:53:41;99270.41;;;-0.39;100.00
27202;BME280;14717;46.924;15.474;2022-12-18T00:56:06;99267.06;;;-0.41;100.00
27202;BME280;14717;46.924;15.474;2022-12-18T00:58:31;99261.53;;;-0.47;100.00
27202;BME280;14717;46.924;15.474;2022-12-18T01:00:57;99269.69;;;-0.61;100.00
27202;BME280;14717;46.924;15.474;2022-12-18T01:03:22;99275.13;;;-0.61;100.00
27202;BME280;14717;46.924;15.474;2022-12-18T01:05:47;99290.00;;;-0.57;100.00
27202;BME280;14717;46.924;15.474;2022-12-18T01:08:14;99278.38;;;-0.66;100.00
27202;BME280;14717;46.924;15.474;2022-12-18T01:10:40;99286.78;;;-0.46;100.00
27202;BME280;14717;46.924;15.474;2022-12-18T01:13:06;99295.84;;;-0.40;100.00
27202;BME280;14717;46.924;15.474;2022-12-18T01:15:31;99297.06;;;-0.28;100.00
27202;BME280;14717;46.924;15.474;2022-12-18T01:17:56;99299.78;;;-0.28;100.00
27202;BME280;14717;46.924;15.474;2022-12-18T01:20:22;99293.94;;;-0.25;100.00
27202;BME280;14717;46.924;15.474;2022-12-18T01:22:47;99306.59;;;-0.17;100.00
27202;BME280;14717;46.924;15.474;2022-12-18T01:25:12;99300.97;;;-0.16;100.00
27202;BME280;14717;46.924;15.474;2022-12-18T01:27:38;99296.84;;;-0.12;100.00
27202;BME280;14717;46.924;15.474;2022-12-18T01:30:04;99308.56;;;-0.11;100.00
27202;BME280;14717;46.924;15.474;2022-12-18T01:32:30;99312.09;;;-0.11;100.00
27202;BME280;14717;46.924;15.474;2022-12-18T01:34:56;99311.84;;;-0.30;100.00
27202;BME280;14717;46.924;15.474;2022-12-18T01:37:21;99323.84;;;-0.39;100.00
27202;BME280;14717;46.924;15.474;2022-12-18T01:39:46;99322.97;;;-0.40;100.00
27202;BME280;14717;46.924;15.474;2022-12-18T01:42:14;99319.16;;;-0.59;100.00
27202;BME280;14717;46.924;15.474;2022-12-18T01:45:03;99321.22;;;-0.76;100.00
27202;BME280;14717;46.924;15.474;2022-12-18T01:47:33;99327.00;;;-0.93;100.00
27202;BME280;14717;46.924;15.474;2022-12-18T01:50:29;99327.56;;;-0.97;100.00
27202;BME280;14717;46.924;15.474;2022-12-18T01:52:54;99331.50;;;-1.00;100.00
27202;BME280;14717;46.924;15.474;2022-12-18T01:55:23;99338.88;;;-0.94;100.00
27202;BME280;14717;46.924;15.474;2022-12-18T01:57:54;99338.34;;;-0.89;100.00
27202;BME280;14717;46.924;15.474;2022-12-18T02:00:21;99342.53;;;-0.73;100.00
27202;BME280;14717;46.924;15.474;2022-12-18T02:02:47;99341.41;;;-0.92;100.00
27202;BME280;14717;46.924;15.474;2022-12-18T02:05:22;99350.13;;;-0.97;100.00
27202;BME280;14717;46.924;15.474;2022-12-18T02:08:21;99354.56;;;-1.04;100.00
27202;BME280;14717;46.924;15.474;2022-12-18T02:11:10;99350.56;;;-1.08;100.00
27202;BME280;14717;46.924;15.474;2022-12-18T02:16:44;99356.25;;;-1.03;100.00
27202;BME280;14717;46.924;15.474;2022-12-18T02:27:18;99358.91;;;-0.66;100.00
27202;BME280;14717;46.924;15.474;2022-12-18T02:29:48;99362.84;;;-0.54;100.00
27202;BME280;14717;46.924;15.474;2022-12-18T02:32:20;99375.03;;;-0.50;100.00
27202;BME280;14717;46.924;15.474;2022-12-18T02:34:48;99371.84;;;-0.40;100.00
27202;BME280;14717;46.924;15.474;2022-12-18T02:37:17;99362.94;;;-0.34;100.00
27202;BME280;14717;46.924;15.474;2022-12-18T02:39:44;99362.84;;;-0.26;100.00
27202;BME280;14717;46.924;15.474;2022-12-18T02:42:11;99364.06;;;-0.28;100.00
27202;BME280;14717;46.924;15.474;2022-12-18T02:44:45;99369.31;;;-0.27;100.00
27202;BME280;14717;46.924;15.474;2022-12-18T02:47:15;99359.03;;;-0.31;100.00
27202;BME280;14717;46.924;15.474;2022-12-18T02:52:31;99355.41;;;-0.52;100.00
27202;BME280;14717;46.924;15.474;2022-12-18T02:58:05;99369.53;;;-1.08;100.00
27202;BME280;14717;46.924;15.474;2022-12-18T03:00:58;99369.28;;;-1.21;100.00
27202;BME280;14717;46.924;15.474;2022-12-18T03:05:53;99372.53;;;-1.25;100.00
27202;BME280;14717;46.924;15.474;2022-12-18T03:08:31;99379.13;;;-1.20;100.00
27202;BME280;14717;46.924;15.474;2022-12-18T03:13:51;99385.91;;;-1.24;100.00
27202;BME280;14717;46.924;15.474;2022-12-18T03:16:27;99392.19;;;-1.23;100.00
27202;BME280;14717;46.924;15.474;2022-12-18T03:19:24;99400.81;;;-1.20;100.00
27202;BME280;14717;46.924;15.474;2022-12-18T03:21:54;99393.69;;;-1.21;100.00
27202;BME280;14717;46.924;15.474;2022-12-18T03:24:21;99387.31;;;-1.27;100.00
27202;BME280;14717;46.924;15.474;2022-12-18T03:26:49;99387.13;;;-1.26;100.00
27202;BME280;14717;46.924;15.474;2022-12-18T03:29:24;99384.59;;;-1.27;100.00
27202;BME280;14717;46.924;15.474;2022-12-18T03:31:55;99382.56;;;-1.26;100.00
27202;BME280;14717;46.924;15.474;2022-12-18T03:34:28;99379.19;;;-1.27;100.00
27202;BME280;14717;46.924;15.474;2022-12-18T03:36:54;99377.84;;;-1.31;100.00
27202;BME280;14717;46.924;15.474;2022-12-18T03:39:20;99378.81;;;-1.25;100.00
27202;BME280;14717;46.924;15.474;2022-12-18T03:42:01;99390.56;;;-1.10;100.00
27202;BME280;14717;46.924;15.474;2022-12-18T03:44:39;99394.91;;;-0.86;100.00
27202;BME280;14717;46.924;15.474;2022-12-18T03:47:14;99395.75;;;-0.86;100.00
27202;BME280;14717;46.924;15.474;2022-12-18T03:49:57;99392.09;;;-0.93;100.00
27202;BME280;14717;46.924;15.474;2022-12-18T03:52:31;99397.94;;;-1.04;100.00
27202;BME280;14717;46.924;15.474;2022-12-18T03:55:01;99389.91;;;-1.12;100.00
27202;BME280;14717;46.924;15.474;2022-12-18T03:57:29;99397.34;;;-1.14;100.00
27202;BME280;14717;46.924;15.474;2022-12-18T04:00:00;99407.34;;;-1.14;100.00
27202;BME280;14717;46.924;15.474;2022-12-18T04:02:27;99406.53;;;-1.15;100.00
27202;BME280;14717;46.924;15.474;2022-12-18T04:04:58;99420.25;;;-1.16;100.00
27202;BME280;14717;46.924;15.474;2022-12-18T04:07:25;99429.88;;;-1.14;100.00
27202;BME280;14717;46.924;15.474;2022-12-18T04:09:54;99430.75;;;-1.13;100.00
27202;BME280;14717;46.924;15.474;2022-12-18T04:12:21;99438.19;;;-1.15;100.00
27202;BME280;14717;46.924;15.474;2022-12-18T04:14:48;99433.50;;;-1.21;100.00
27202;BME280;14717;46.924;15.474;2022-12-18T04:17:14;99430.63;;;-1.20;100.00
27202;BME280;14717;46.924;15.474;2022-12-18T04:19:39;99426.16;;;-1.13;100.00
27202;BME280;14717;46.924;15.474;2022-12-18T04:22:05;99426.81;;;-1.11;100.00
27202;BME280;14717;46.924;15.474;2022-12-18T04:24:30;99427.34;;;-1.15;100.00
27202;BME280;14717;46.924;15.474;2022-12-18T04:26:55;99417.47;;;-1.08;100.00
27202;BME280;14717;46.924;15.474;2022-12-18T04:29:21;99427.75;;;-1.04;100.00
27202;BME280;14717;46.924;15.474;2022-12-18T04:31:46;99434.75;;;-0.87;100.00
27202;BME280;14717;46.924;15.474;2022-12-18T04:34:11;99434.06;;;-0.89;100.00
27202;BME280;14717;46.924;15.474;2022-12-18T04:36:37;99443.31;;;-0.98;100.00
27202;BME280;14717;46.924;15.474;2022-12-18T04:39:02;99450.50;;;-1.05;100.00
27202;BME280;14717;46.924;15.474;2022-12-18T04:41:27;99463.38;;;-1.07;100.00
27202;BME280;14717;46.924;15.474;2022-12-18T04:43:53;99459.28;;;-1.03;100.00
27202;BME280;14717;46.924;15.474;2022-12-18T04:46:18;99456.25;;;-1.08;100.00
27202;BME280;14717;46.924;15.474;2022-12-18T04:48:45;99452.53;;;-1.07;100.00
27202;BME280;14717;46.924;15.474;2022-12-18T04:51:12;99458.06;;;-1.00;100.00
27202;BME280;14717;46.924;15.474;2022-12-18T04:53:37;99460.47;;;-1.05;100.00
27202;BME280;14717;46.924;15.474;2022-12-18T04:56:10;99470.47;;;-1.06;100.00
27202;BME280;14717;46.924;15.474;2022-12-18T04:58:37;99473.25;;;-1.14;100.00
27202;BME280;14717;46.924;15.474;2022-12-18T05:01:03;99472.88;;;-1.11;100.00
27202;BME280;14717;46.924;15.474;2022-12-18T05:03:29;99476.63;;;-1.12;100.00
27202;BME280;14717;46.924;15.474;2022-12-18T05:05:54;99479.03;;;-1.17;100.00
27202;BME280;14717;46.924;15.474;2022-12-18T05:08:20;99492.16;;;-1.06;100.00
27202;BME280;14717;46.924;15.474;2022-12-18T05:10:45;99482.72;;;-1.10;100.00
27202;BME280;14717;46.924;15.474;2022-12-18T05:13:11;99479.25;;;-1.04;100.00
27202;BME280;14717;46.924;15.474;2022-12-18T05:15:36;99475.91;;;-1.06;100.00
27202;BME280;14717;46.924;15.474;2022-12-18T05:18:02;99484.38;;;-1.09;100.00
27202;BME280;14717;46.924;15.474;2022-12-18T05:20:29;99482.59;;;-1.16;100.00
27202;BME280;14717;46.924;15.474;2022-12-18T05:22:54;99496.28;;;-1.10;100.00
27202;BME280;14717;46.924;15.474;2022-12-18T05:25:20;99498.50;;;-1.13;100.00
27202;BME280;14717;46.924;15.474;2022-12-18T05:27:46;99495.66;;;-1.20;100.00
27202;BME280;14717;46.924;15.474;2022-12-18T05:30:12;99500.34;;;-1.14;100.00
27202;BME280;14717;46.924;15.474;2022-12-18T05:32:38;99508.16;;;-1.19;100.00
27202;BME280;14717;46.924;15.474;2022-12-18T05:35:04;99504.09;;;-1.15;100.00
27202;BME280;14717;46.924;15.474;2022-12-18T05:37:30;99503.22;;;-1.15;100.00
27202;BME280;14717;46.924;15.474;2022-12-18T05:39:55;99502.41;;;-1.16;100.00
27202;BME280;14717;46.924;15.474;2022-12-18T05:42:21;99499.69;;;-1.16;100.00
27202;BME280;14717;46.924;15.474;2022-12-18T05:44:46;99504.09;;;-1.15;100.00
27202;BME280;14717;46.924;15.474;2022-12-18T05:47:12;99508.16;;;-1.19;100.00
27202;BME280;14717;46.924;15.474;2022-12-18T05:49:37;99512.56;;;-1.18;100.00
27202;BME280;14717;46.924;15.474;2022-12-18T05:52:03;99510.97;;;-1.27;100.00
27202;BME280;14717;46.924;15.474;2022-12-18T05:54:28;99507.84;;;-1.24;100.00
27202;BME280;14717;46.924;15.474;2022-12-18T05:56:54;99513.47;;;-1.25;100.00
27202;BME280;14717;46.924;15.474;2022-12-18T05:59:19;99508.03;;;-1.25;100.00
27202;BME280;14717;46.924;15.474;2022-12-18T06:01:45;99514.38;;;-1.32;100.00
27202;BME280;14717;46.924;15.474;2022-12-18T06:04:10;99512.00;;;-1.35;100.00
27202;BME280;14717;46.924;15.474;2022-12-18T06:06:36;99524.72;;;-1.36;100.00
27202;BME280;14717;46.924;15.474;2022-12-18T06:09:03;99536.75;;;-1.38;100.00
27202;BME280;14717;46.924;15.474;2022-12-18T06:11:34;99534.03;;;-1.38;100.00
27202;BME280;14717;46.924;15.474;2022-12-18T06:13:59;99539.09;;;-1.35;100.00
27202;BME280;14717;46.924;15.474;2022-12-18T06:16:26;99543.66;;;-1.28;100.00
27202;BME280;14717;46.924;15.474;2022-12-18T06:18:52;99545.53;;;-1.36;100.00
27202;BME280;14717;46.924;15.474;2022-12-18T06:21:17;99543.50;;;-1.34;100.00
27202;BME280;14717;46.924;15.474;2022-12-18T06:23:42;99546.22;;;-1.34;100.00
27202;BME280;14717;46.924;15.474;2022-12-18T06:26:10;99542.13;;;-1.30;100.00
27202;BME280;14717;46.924;15.474;2022-12-18T06:28:36;99556.34;;;-1.28;100.00
27202;BME280;14717;46.924;15.474;2022-12-18T06:31:04;99563.44;;;-1.27;100.00
27202;BME280;14717;46.924;15.474;2022-12-18T06:33:30;99571.75;;;-1.29;100.00
27202;BME280;14717;46.924;15.474;2022-12-18T06:36:01;99569.53;;;-1.26;100.00
27202;BME280;14717;46.924;15.474;2022-12-18T06:38:27;99571.41;;;-1.26;100.00
27202;BME280;14717;46.924;15.474;2022-12-18T06:40:52;99572.63;;;-1.36;100.00
27202;BME280;14717;46.924;15.474;2022-12-18T06:43:17;99572.06;;;-1.54;100.00
27202;BME280;14717;46.924;15.474;2022-12-18T06:45:43;99576.78;;;-1.56;100.00
27202;BME280;14717;46.924;15.474;2022-12-18T06:48:08;99577.97;;;-1.51;100.00
27202;BME280;14717;46.924;15.474;2022-12-18T06:50:34;99583.56;;;-1.60;100.00
27202;BME280;14717;46.924;15.474;2022-12-18T06:52:59;99584.25;;;-1.66;100.00
27202;BME280;14717;46.924;15.474;2022-12-18T06:55:25;99591.38;;;-1.65;100.00
27202;BME280;14717;46.924;15.474;2022-12-18T06:57:50;99586.66;;;-1.71;100.00
27202;BME280;14717;46.924;15.474;2022-12-18T07:00:16;99601.72;;;-1.76;100.00
27202;BME280;14717;46.924;15.474;2022-12-18T07:02:41;99606.63;;;-1.72;100.00
27202;BME280;14717;46.924;15.474;2022-12-18T07:05:07;99618.13;;;-1.70;100.00
27202;BME280;14717;46.924;15.474;2022-12-18T07:07:34;99614.41;;;-1.69;100.00
27202;BME280;14717;46.924;15.474;2022-12-18T07:09:59;99613.53;;;-1.62;100.00
27202;BME280;14717;46.924;15.474;2022-12-18T07:12:26;99609.09;;;-1.55;100.00
27202;BME280;14717;46.924;15.474;2022-12-18T07:14:52;99605.19;;;-1.44;100.00
27202;BME280;14717;46.924;15.474;2022-12-18T07:17:17;99609.03;;;-1.31;100.00
27202;BME280;14717;46.924;15.474;2022-12-18T07:19:42;99610.56;;;-1.36;100.00
27202;BME280;14717;46.924;15.474;2022-12-18T07:22:08;99617.03;;;-1.45;100.00
27202;BME280;14717;46.924;15.474;2022-12-18T07:24:33;99614.84;;;-1.50;100.00
27202;BME280;14717;46.924;15.474;2022-12-18T07:26:59;99614.03;;;-1.58;100.00
27202;BME280;14717;46.924;15.474;2022-12-18T07:29:25;99616.88;;;-1.52;100.00
27202;BME280;14717;46.924;15.474;2022-12-18T07:31:51;99626.16;;;-1.38;100.00
27202;BME280;14717;46.924;15.474;2022-12-18T07:34:16;99639.53;;;-1.37;100.00
27202;BME280;14717;46.924;15.474;2022-12-18T07:36:42;99627.38;;;-1.41;100.00
27202;BME280;14717;46.924;15.474;2022-12-18T07:39:08;99637.81;;;-1.30;100.00
27202;BME280;14717;46.924;15.474;2022-12-18T07:41:33;99652.81;;;-1.12;100.00
27202;BME280;14717;46.924;15.474;2022-12-18T07:43:59;99659.19;;;-0.97;100.00
27202;BME280;14717;46.924;15.474;2022-12-18T07:46:24;99653.78;;;-0.97;100.00
27202;BME280;14717;46.924;15.474;2022-12-18T07:48:49;99657.59;;;-1.22;100.00
27202;BME280;14717;46.924;15.474;2022-12-18T07:51:15;99663.53;;;-1.18;100.00
27202;BME280;14717;46.924;15.474;2022-12-18T07:53:41;99655.84;;;-1.07;100.00
27202;BME280;14717;46.924;15.474;2022-12-18T07:56:09;99654.91;;;-1.22;100.00
27202;BME280;14717;46.924;15.474;2022-12-18T07:58:35;99660.66;;;-1.25;100.00
27202;BME280;14717;46.924;15.474;2022-12-18T08:01:05;99660.81;;;-1.18;100.00
27202;BME280;14717;46.924;15.474;2022-12-18T08:03:31;99671.41;;;-1.09;100.00
27202;BME280;14717;46.924;15.474;2022-12-18T08:06:00;99678.50;;;-1.00;100.00
27202;BME280;14717;46.924;15.474;2022-12-18T08:08:26;99670.53;;;-0.93;100.00
27202;BME280;14717;46.924;15.474;2022-12-18T08:10:52;99675.97;;;-1.01;100.00
27202;BME280;14717;46.924;15.474;2022-12-18T08:13:17;99672.91;;;-0.98;99.76
27202;BME280;14717;46.924;15.474;2022-12-18T08:15:42;99683.00;;;-1.15;98.61
27202;BME280;14717;46.924;15.474;2022-12-18T08:18:08;99677.13;;;-0.96;98.34
27202;BME280;14717;46.924;15.474;2022-12-18T08:20:33;99670.47;;;-0.86;97.54
27202;BME280;14717;46.924;15.474;2022-12-18T08:22:58;99678.72;;;-0.79;97.44
27202;BME280;14717;46.924;15.474;2022-12-18T08:25:24;99678.69;;;-0.71;97.39
27202;BME280;14717;46.924;15.474;2022-12-18T08:27:49;99683.16;;;-0.78;97.13
27202;BME280;14717;46.924;15.474;2022-12-18T08:30:14;99687.97;;;-0.96;97.56
27202;BME280;14717;46.924;15.474;2022-12-18T08:32:40;99686.47;;;-0.98;97.36
27202;BME280;14717;46.924;15.474;2022-12-18T08:35:05;99685.03;;;-1.17;96.40
27202;BME280;14717;46.924;15.474;2022-12-18T08:37:31;99685.22;;;-1.26;95.17
27202;BME280;14717;46.924;15.474;2022-12-18T08:39:56;99685.06;;;-1.25;96.93
27202;BME280;14717;46.924;15.474;2022-12-18T08:42:22;99671.81;;;-1.20;96.49
27202;BME280;14717;46.924;15.474;2022-12-18T08:45:06;99677.44;;;-0.91;97.20
27202;BME280;14717;46.924;15.474;2022-12-18T08:47:32;99685.53;;;-0.83;96.78
27202;BME280;14717;46.924;15.474;2022-12-18T08:49:57;99689.25;;;-0.76;95.41
27202;BME280;14717;46.924;15.474;2022-12-18T08:52:23;99685.94;;;-0.94;95.30
27202;BME280;14717;46.924;15.474;2022-12-18T08:54:48;99690.41;;;-1.09;95.36
27202;BME280;14717;46.924;15.474;2022-12-18T08:57:14;99700.91;;;-1.14;96.29
27202;BME280;14717;46.924;15.474;2022-12-18T08:59:39;99699.59;;;-1.18;96.00
27202;BME280;14717;46.924;15.474;2022-12-18T09:02:05;99696.53;;;-1.15;96.42
27202;BME280;14717;46.924;15.474;2022-12-18T09:04:30;99703.25;;;-1.03;97.44
27202;BME280;14717;46.924;15.474;2022-12-18T09:06:56;99698.03;;;-0.74;97.76
27202;BME280;14717;46.924;15.474;2022-12-18T09:09:21;99706.75;;;-0.56;97.22
27202;BME280;14717;46.924;15.474;2022-12-18T09:11:46;99713.13;;;-0.42;95.39
27202;BME280;14717;46.924;15.474;2022-12-18T09:14:12;99712.44;;;-0.43;94.14
27202;BME280;14717;46.924;15.474;2022-12-18T09:16:37;99715.31;;;-0.37;93.61
27202;BME280;14717;46.924;15.474;2022-12-18T09:19:04;99711.75;;;-0.38;93.70
27202;BME280;14717;46.924;15.474;2022-12-18T09:21:32;99706.00;;;-0.43;95.45
27202;BME280;14717;46.924;15.474;2022-12-18T09:23:58;99709.81;;;-0.59;96.19
27202;BME280;14717;46.924;15.474;2022-12-18T09:26:25;99711.28;;;-0.79;97.67
27202;BME280;14717;46.924;15.474;2022-12-18T09:28:51;99717.72;;;-0.72;98.25
27202;BME280;14717;46.924;15.474;2022-12-18T09:31:19;99715.69;;;-0.78;98.50
27202;BME280;14717;46.924;15.474;2022-12-18T09:33:46;99719.34;;;-0.63;98.96
27202;BME280;14717;46.924;15.474;2022-12-18T09:36:13;99718.59;;;-0.49;98.52
27202;BME280;14717;46.924;15.474;2022-12-18T09:38:39;99718.19;;;-0.39;97.83
27202;BME280;14717;46.924;15.474;2022-12-18T09:43:49;99714.81;;;-0.41;97.11
27202;BME280;14717;46.924;15.474;2022-12-18T09:46:43;99717.66;;;-0.34;96.79
27202;BME280;14717;46.924;15.474;2022-12-18T09:49:13;99707.47;;;-0.32;96.20
27202;BME280;14717;46.924;15.474;2022-12-18T09:51:48;99703.72;;;-0.61;96.08
27202;BME280;14717;46.924;15.474;2022-12-18T09:54:26;99700.28;;;-0.47;97.71
27202;BME280;14717;46.924;15.474;2022-12-18T09:56:52;99700.50;;;-0.35;96.81
27202;BME280;14717;46.924;15.474;2022-12-18T09:59:26;99710.66;;;-0.29;97.06
27202;BME280;14717;46.924;15.474;2022-12-18T10:01:55;99701.25;;;-0.41;97.36
27202;BME280;14717;46.924;15.474;2022-12-18T10:04:20;99701.84;;;-0.31;97.35
27202;BME280;14717;46.924;15.474;2022-12-18T10:06:48;99697.25;;;-0.30;96.76
27202;BME280;14717;46.924;15.474;2022-12-18T10:09:43;99702.47;;;-0.21;97.04
27202;BME280;14717;46.924;15.474;2022-12-18T10:15:24;99691.84;;;-0.52;98.33
27202;BME280;14717;46.924;15.474;2022-12-18T10:18:17;99692.19;;;-0.55;98.82
27202;BME280;14717;46.924;15.474;2022-12-18T10:20:49;99688.22;;;-0.45;99.76
27202;BME280;14717;46.924;15.474;2022-12-18T10:23:32;99679.94;;;-0.51;100.00
27202;BME280;14717;46.924;15.474;2022-12-18T10:26:07;99687.69;;;-0.41;99.97
27202;BME280;14717;46.924;15.474;2022-12-18T10:28:36;99689.03;;;-0.44;99.05
27202;BME280;14717;46.924;15.474;2022-12-18T10:31:02;99685.63;;;-0.39;99.78
27202;BME280;14717;46.924;15.474;2022-12-18T10:33:31;99688.06;;;-0.51;99.92
27202;BME280;14717;46.924;15.474;2022-12-18T10:35:57;99693.28;;;-0.42;100.00
27202;BME280;14717;46.924;15.474;2022-12-18T10:38:26;99693.53;;;-0.29;99.47
27202;BME280;14717;46.924;15.474;2022-12-18T10:49:01;99684.13;;;-0.19;98.31
27202;BME280;14717;46.924;15.474;2022-12-18T10:51:36;99681.59;;;-0.20;98.78
27202;BME280;14717;46.924;15.474;2022-12-18T10:54:18;99676.94;;;-0.12;99.33
27202;BME280;14717;46.924;15.474;2022-12-18T10:56:45;99674.28;;;-0.20;97.30
27202;BME280;14717;46.924;15.474;2022-12-18T10:59:15;99665.06;;;-0.11;97.68
27202;BME280;14717;46.924;15.474;2022-12-18T11:01:51;99662.53;;;-0.12;98.37
27202;BME280;14717;46.924;15.474;2022-12-18T11:04:22;99662.88;;;-0.15;98.36
27202;BME280;14717;46.924;15.474;2022-12-18T11:07:06;99667.34;;;0.00;98.26
27202;BME280;14717;46.924;15.474;2022-12-18T11:09:40;99662.81;;;-0.07;98.11
27202;BME280;14717;46.924;15.474;2022-12-18T11:12:19;99668.50;;;-0.17;99.18
27202;BME280;14717;46.924;15.474;2022-12-18T11:14:50;99666.03;;;-0.26;99.19
27202;BME280;14717;46.924;15.474;2022-12-18T11:17:21;99669.78;;;-0.27;98.87
27202;BME280;14717;46.924;15.474;2022-12-18T11:19:55;99671.66;;;-0.28;99.06
27202;BME280;14717;46.924;15.474;2022-12-18T11:22:25;99669.69;;;-0.42;100.00
27202;BME280;14717;46.924;15.474;2022-12-18T11:27:37;99660.78;;;-0.28;100.00
27202;BME280;14717;46.924;15.474;2022-12-18T11:30:21;99660.34;;;-0.17;100.00
27202;BME280;14717;46.924;15.474;2022-12-18T11:32:54;99651.97;;;-0.07;100.00
27202;BME280;14717;46.924;15.474;2022-12-18T11:35:42;99658.03;;;-0.05;99.96
27202;BME280;14717;46.924;15.474;2022-12-18T11:38:24;99652.25;;;-0.02;99.72
27202;BME280;14717;46.924;15.474;2022-12-18T11:40:58;99652.38;;;0.04;99.10
27202;BME280;14717;46.924;15.474;2022-12-18T11:43:54;99652.72;;;0.01;98.86
27202;BME280;14717;46.924;15.474;2022-12-18T11:46:33;99642.13;;;-0.08;99.42
27202;BME280;14717;46.924;15.474;2022-12-18T11:49:23;99641.22;;;-0.01;99.04
27202;BME280;14717;46.924;15.474;2022-12-18T11:51:55;99639.69;;;-0.03;99.51
27202;BME280;14717;46.924;15.474;2022-12-18T11:54:22;99642.34;;;0.04;98.79
27202;BME280;14717;46.924;15.474;2022-12-18T11:56:53;99623.09;;;0.14;98.67
27202;BME280;14717;46.924;15.474;2022-12-18T12:07:21;99642.47;;;0.11;98.66
27202;BME280;14717;46.924;15.474;2022-12-18T12:12:55;99627.88;;;0.12;98.64
27202;BME280;14717;46.924;15.474;2022-12-18T12:18:17;99631.94;;;0.08;99.50
27202;BME280;14717;46.924;15.474;2022-12-18T12:21:07;99630.66;;;0.04;98.48
27202;BME280;14717;46.924;15.474;2022-12-18T12:24:01;99639.38;;;0.14;99.28
27202;BME280;14717;46.924;15.474;2022-12-18T12:29:10;99636.25;;;-0.20;99.29
27202;BME280;14717;46.924;15.474;2022-12-18T12:40:18;99636.84;;;-0.24;100.00
27202;BME280;14717;46.924;15.474;2022-12-18T12:42:56;99638.91;;;-0.26;100.00
27202;BME280;14717;46.924;15.474;2022-12-18T12:48:27;99627.44;;;-0.36;100.00
27202;BME280;14717;46.924;15.474;2022-12-18T12:50:56;99630.78;;;-0.12;100.00
27202;BME280;14717;46.924;15.474;2022-12-18T12:53:30;99633.34;;;0.04;99.75
27202;BME280;14717;46.924;15.474;2022-12-18T12:55:58;99624.09;;;0.13;98.11
27202;BME280;14717;46.924;15.474;2022-12-18T13:01:39;99635.66;;;0.29;96.69
27202;BME280;14717;46.924;15.474;2022-12-18T13:04:23;99628.38;;;0.30;97.46
27202;BME280;14717;46.924;15.474;2022-12-18T13:07:18;99633.03;;;0.36;96.76
27202;BME280;14717;46.924;15.474;2022-12-18T13:12:53;99634.09;;;0.35;96.45
27202;BME280;14717;46.924;15.474;2022-12-18T13:23:26;99637.09;;;0.40;95.97
27202;BME280;14717;46.924;15.474;2022-12-18T13:34:21;99647.16;;;0.17;96.84
27202;BME280;14717;46.924;15.474;2022-12-18T13:36:48;99652.59;;;0.17;96.63
27202;BME280;14717;46.924;15.474;2022-12-18T13:41:44;99666.13;;;0.25;97.19
27202;BME280;14717;46.924;15.474;2022-12-18T13:46:55;99662.28;;;0.34;97.04
27202;BME280;14717;46.924;15.474;2022-12-18T13:49:39;99658.91;;;0.32;96.52
27202;BME280;14717;46.924;15.474;2022-12-18T13:52:21;99656.66;;;0.35;96.02
27202;BME280;14717;46.924;15.474;2022-12-18T13:55:01;99663.59;;;0.38;95.65
27202;BME280;14717;46.924;15.474;2022-12-18T13:57:32;99666.28;;;0.38;95.92
27202;BME280;14717;46.924;15.474;2022-12-18T14:00:32;99665.00;;;0.34;95.85
27202;BME280;14717;46.924;15.474;2022-12-18T14:02:58;99663.28;;;0.33;95.84
27202;BME280;14717;46.924;15.474;2022-12-18T14:05:28;99668.63;;;0.26;95.73
27202;BME280;14717;46.924;15.474;2022-12-18T14:08:04;99669.69;;;0.03;96.17
27202;BME280;14717;46.924;15.474;2022-12-18T14:10:30;99668.78;;;-0.12;97.18
27202;BME280;14717;46.924;15.474;2022-12-18T14:12:56;99666.88;;;-0.26;97.40
27202;BME280;14717;46.924;15.474;2022-12-18T14:15:35;99662.75;;;-0.22;97.40
27202;BME280;14717;46.924;15.474;2022-12-18T14:18:18;99666.22;;;-0.28;97.10
27202;BME280;14717;46.924;15.474;2022-12-18T14:20:44;99671.69;;;-0.36;98.23
27202;BME280;14717;46.924;15.474;2022-12-18T14:23:36;99668.31;;;-0.15;98.52
27202;BME280;14717;46.924;15.474;2022-12-18T14:26:25;99675.44;;;-0.14;97.40
27202;BME280;14717;46.924;15.474;2022-12-18T14:28:48;99682.19;;;-0.10;97.36
27202;BME280;14717;46.924;15.474;2022-12-18T14:31:21;99681.19;;;-0.09;97.60
27202;BME280;14717;46.924;15.474;2022-12-18T14:33:47;99682.84;;;-0.31;97.49